sensor_id;sensor_type;location;lat;lon;timestamp;P1;durP1;ratioP1;P2;durP2;ratioP2
77453;SDS011;66538;53.150;18.160;2023-12-20T00:01:24;7.60;;;4.00;;
77453;SDS011;66538;53.150;18.160;2023-12-20T00:03:51;8.20;;;4.40;;
77453;SDS011;66538;53.150;18.160;2023-12-20T00:06:17;8.60;;;4.10;;
77453;SDS011;66538;53.150;18.160;2023-12-20T00:08:44;7.50;;;3.90;;
77453;SDS011;66538;53.150;18.160;2023-12-20T00:11:10;8.80;;;4.80;;
77453;SDS011;66538;53.150;18.160;2023-12-20T00:13:37;9.80;;;5.30;;
77453;SDS011;66538;53.150;18.160;2023-12-20T00:16:04;8.50;;;4.40;;
77453;SDS011;66538;53.150;18.160;2023-12-20T00:18:30;7.80;;;3.80;;
77453;SDS011;66538;53.150;18.160;2023-12-20T00:20:57;7.30;;;3.50;;
77453;SDS011;66538;53.150;18.160;2023-12-20T00:23:23;7.90;;;3.80;;
77453;SDS011;66538;53.150;18.160;2023-12-20T00:25:50;6.60;;;3.50;;
77453;SDS011;66538;53.150;18.160;2023-12-20T00:28:17;5.90;;;2.90;;
77453;SDS011;66538;53.150;18.160;2023-12-20T00:30:43;8.80;;;4.60;;
77453;SDS011;66538;53.150;18.160;2023-12-20T00:33:10;7.60;;;4.20;;
77453;SDS011;66538;53.150;18.160;2023-12-20T00:35:36;7.80;;;3.80;;
77453;SDS011;66538;53.150;18.160;2023-12-20T00:38:03;8.20;;;4.30;;
77453;SDS011;66538;53.150;18.160;2023-12-20T00:40:31;8.10;;;4.50;;
77453;SDS011;66538;53.150;18.160;2023-12-20T00:42:58;8.20;;;4.40;;
77453;SDS011;66538;53.150;18.160;2023-12-20T00:45:24;10.70;;;5.10;;
77453;SDS011;66538;53.150;18.160;2023-12-20T00:47:51;9.10;;;4.10;;
77453;SDS011;66538;53.150;18.160;2023-12-20T00:50:17;9.60;;;5.40;;
77453;SDS011;66538;53.150;18.160;2023-12-20T00:52:44;7.20;;;4.10;;
77453;SDS011;66538;53.150;18.160;2023-12-20T00:55:11;9.20;;;4.60;;
77453;SDS011;66538;53.150;18.160;2023-12-20T00:57:37;6.90;;;3.60;;
77453;SDS011;66538;53.150;18.160;2023-12-20T01:00:04;6.60;;;3.50;;
77453;SDS011;66538;53.150;18.160;2023-12-20T01:02:31;6.90;;;3.90;;
77453;SDS011;66538;53.150;18.160;2023-12-20T01:04:58;10.20;;;5.10;;
77453;SDS011;66538;53.150;18.160;2023-12-20T01:07:25;7.80;;;4.10;;
77453;SDS011;66538;53.150;18.160;2023-12-20T01:09:51;8.50;;;4.50;;
77453;SDS011;66538;53.150;18.160;2023-12-20T01:12:18;7.40;;;3.50;;
77453;SDS011;66538;53.150;18.160;2023-12-20T01:14:46;7.80;;;3.80;;
77453;SDS011;66538;53.150;18.160;2023-12-20T01:17:13;8.20;;;4.40;;
77453;SDS011;66538;53.150;18.160;2023-12-20T01:19:40;8.10;;;4.30;;
77453;SDS011;66538;53.150;18.160;2023-12-20T01:22:06;9.20;;;4.70;;
77453;SDS011;66538;53.150;18.160;2023-12-20T01:24:33;10.40;;;5.30;;
77453;SDS011;66538;53.150;18.160;2023-12-20T01:27:00;7.60;;;4.00;;
77453;SDS011;66538;53.150;18.160;2023-12-20T01:29:26;7.90;;;4.40;;
77453;SDS011;66538;53.150;18.160;2023-12-20T01:31:53;9.10;;;4.50;;
77453;SDS011;66538;53.150;18.160;2023-12-20T01:34:19;9.90;;;5.40;;
77453;SDS011;66538;53.150;18.160;2023-12-20T01:36:46;7.80;;;4.10;;
77453;SDS011;66538;53.150;18.160;2023-12-20T01:39:12;8.20;;;4.20;;
77453;SDS011;66538;53.150;18.160;2023-12-20T01:41:39;9.40;;;4.00;;
77453;SDS011;66538;53.150;18.160;2023-12-20T01:44:06;7.20;;;4.10;;
77453;SDS011;66538;53.150;18.160;2023-12-20T01:46:32;6.80;;;3.70;;
77453;SDS011;66538;53.150;18.160;2023-12-20T01:48:59;8.90;;;4.90;;
77453;SDS011;66538;53.150;18.160;2023-12-20T01:51:25;7.30;;;4.00;;
77453;SDS011;66538;53.150;18.160;2023-12-20T01:53:54;9.00;;;4.70;;
77453;SDS011;66538;53.150;18.160;2023-12-20T01:56:24;8.10;;;4.30;;
77453;SDS011;66538;53.150;18.160;2023-12-20T01:58:52;8.60;;;4.80;;
77453;SDS011;66538;53.150;18.160;2023-12-20T02:01:18;9.10;;;4.90;;
77453;SDS011;66538;53.150;18.160;2023-12-20T02:03:45;9.90;;;4.70;;
77453;SDS011;66538;53.150;18.160;2023-12-20T02:06:12;7.60;;;4.10;;
77453;SDS011;66538;53.150;18.160;2023-12-20T02:08:39;11.10;;;6.10;;
77453;SDS011;66538;53.150;18.160;2023-12-20T02:11:06;8.40;;;4.30;;
77453;SDS011;66538;53.150;18.160;2023-12-20T02:13:33;9.00;;;4.90;;
77453;SDS011;66538;53.150;18.160;2023-12-20T02:16:00;7.60;;;4.10;;
77453;SDS011;66538;53.150;18.160;2023-12-20T02:18:26;7.80;;;3.70;;
77453;SDS011;66538;53.150;18.160;2023-12-20T02:20:53;10.10;;;5.30;;
77453;SDS011;66538;53.150;18.160;2023-12-20T02:23:21;9.30;;;4.80;;
77453;SDS011;66538;53.150;18.160;2023-12-20T02:25:48;7.40;;;4.00;;
77453;SDS011;66538;53.150;18.160;2023-12-20T02:28:14;6.70;;;3.70;;
77453;SDS011;66538;53.150;18.160;2023-12-20T02:30:42;8.20;;;4.30;;
77453;SDS011;66538;53.150;18.160;2023-12-20T02:33:10;11.20;;;6.40;;
77453;SDS011;66538;53.150;18.160;2023-12-20T02:35:38;11.20;;;6.40;;
77453;SDS011;66538;53.150;18.160;2023-12-20T02:38:05;7.90;;;4.30;;
77453;SDS011;66538;53.150;18.160;2023-12-20T02:40:32;11.20;;;5.80;;
77453;SDS011;66538;53.150;18.160;2023-12-20T02:42:58;9.20;;;4.80;;
77453;SDS011;66538;53.150;18.160;2023-12-20T02:45:26;9.20;;;4.40;;
77453;SDS011;66538;53.150;18.160;2023-12-20T02:47:53;10.10;;;5.50;;
77453;SDS011;66538;53.150;18.160;2023-12-20T02:50:20;9.50;;;4.30;;
77453;SDS011;66538;53.150;18.160;2023-12-20T02:52:46;10.30;;;4.80;;
77453;SDS011;66538;53.150;18.160;2023-12-20T02:55:13;7.10;;;3.90;;
77453;SDS011;66538;53.150;18.160;2023-12-20T02:57:40;8.20;;;4.10;;
77453;SDS011;66538;53.150;18.160;2023-12-20T03:00:09;8.00;;;4.60;;
77453;SDS011;66538;53.150;18.160;2023-12-20T03:02:37;9.00;;;5.00;;
77453;SDS011;66538;53.150;18.160;2023-12-20T03:05:03;7.90;;;3.80;;
77453;SDS011;66538;53.150;18.160;2023-12-20T03:07:30;8.00;;;3.90;;
77453;SDS011;66538;53.150;18.160;2023-12-20T03:09:57;10.00;;;5.90;;
77453;SDS011;66538;53.150;18.160;2023-12-20T03:12:24;9.20;;;4.70;;
77453;SDS011;66538;53.150;18.160;2023-12-20T03:14:50;9.10;;;4.40;;
77453;SDS011;66538;53.150;18.160;2023-12-20T03:17:17;9.50;;;4.90;;
77453;SDS011;66538;53.150;18.160;2023-12-20T03:19:43;8.70;;;4.80;;
77453;SDS011;66538;53.150;18.160;2023-12-20T03:22:10;9.70;;;4.50;;
77453;SDS011;66538;53.150;18.160;2023-12-20T03:24:37;9.30;;;4.90;;
77453;SDS011;66538;53.150;18.160;2023-12-20T03:27:03;9.20;;;5.40;;
77453;SDS011;66538;53.150;18.160;2023-12-20T03:29:30;8.80;;;4.50;;
77453;SDS011;66538;53.150;18.160;2023-12-20T03:31:57;8.90;;;5.00;;
77453;SDS011;66538;53.150;18.160;2023-12-20T03:34:23;10.00;;;4.80;;
77453;SDS011;66538;53.150;18.160;2023-12-20T03:36:50;7.10;;;3.70;;
77453;SDS011;66538;53.150;18.160;2023-12-20T03:39:16;7.50;;;3.60;;
77453;SDS011;66538;53.150;18.160;2023-12-20T03:41:43;9.10;;;4.60;;
77453;SDS011;66538;53.150;18.160;2023-12-20T03:44:09;8.80;;;4.60;;
77453;SDS011;66538;53.150;18.160;2023-12-20T03:46:36;9.50;;;5.00;;
77453;SDS011;66538;53.150;18.160;2023-12-20T03:49:02;10.60;;;5.50;;
77453;SDS011;66538;53.150;18.160;2023-12-20T03:51:29;7.40;;;3.80;;
77453;SDS011;66538;53.150;18.160;2023-12-20T03:53:56;9.60;;;5.50;;
77453;SDS011;66538;53.150;18.160;2023-12-20T03:56:22;9.90;;;5.00;;
77453;SDS011;66538;53.150;18.160;2023-12-20T03:58:49;6.20;;;3.20;;
77453;SDS011;66538;53.150;18.160;2023-12-20T04:01:15;6.20;;;3.50;;
77453;SDS011;66538;53.150;18.160;2023-12-20T04:03:42;7.30;;;3.80;;
77453;SDS011;66538;53.150;18.160;2023-12-20T04:06:09;6.70;;;3.00;;
77453;SDS011;66538;53.150;18.160;2023-12-20T04:08:36;6.50;;;3.20;;
77453;SDS011;66538;53.150;18.160;2023-12-20T04:11:02;8.60;;;3.70;;
77453;SDS011;66538;53.150;18.160;2023-12-20T04:13:29;5.00;;;2.60;;
77453;SDS011;66538;53.150;18.160;2023-12-20T04:15:55;6.80;;;3.40;;
77453;SDS011;66538;53.150;18.160;2023-12-20T04:18:22;6.40;;;3.20;;
77453;SDS011;66538;53.150;18.160;2023-12-20T04:20:48;5.20;;;2.80;;
77453;SDS011;66538;53.150;18.160;2023-12-20T04:23:16;5.30;;;2.70;;
77453;SDS011;66538;53.150;18.160;2023-12-20T04:25:42;5.10;;;2.80;;
77453;SDS011;66538;53.150;18.160;2023-12-20T04:28:09;6.80;;;3.60;;
77453;SDS011;66538;53.150;18.160;2023-12-20T04:30:35;7.00;;;4.00;;
77453;SDS011;66538;53.150;18.160;2023-12-20T04:33:02;5.50;;;2.80;;
77453;SDS011;66538;53.150;18.160;2023-12-20T04:35:29;6.10;;;3.00;;
77453;SDS011;66538;53.150;18.160;2023-12-20T04:37:55;6.20;;;2.60;;
77453;SDS011;66538;53.150;18.160;2023-12-20T04:40:22;7.90;;;3.60;;
77453;SDS011;66538;53.150;18.160;2023-12-20T04:42:48;6.50;;;3.60;;
77453;SDS011;66538;53.150;18.160;2023-12-20T04:45:15;6.70;;;3.00;;
77453;SDS011;66538;53.150;18.160;2023-12-20T04:47:43;4.90;;;2.30;;
77453;SDS011;66538;53.150;18.160;2023-12-20T04:50:09;7.80;;;3.70;;
77453;SDS011;66538;53.150;18.160;2023-12-20T04:52:37;5.90;;;3.30;;
77453;SDS011;66538;53.150;18.160;2023-12-20T04:55:04;8.20;;;4.60;;
77453;SDS011;66538;53.150;18.160;2023-12-20T04:57:31;11.10;;;5.60;;
77453;SDS011;66538;53.150;18.160;2023-12-20T04:59:57;11.80;;;5.90;;
77453;SDS011;66538;53.150;18.160;2023-12-20T05:02:24;8.90;;;4.60;;
77453;SDS011;66538;53.150;18.160;2023-12-20T05:04:50;12.10;;;5.50;;
77453;SDS011;66538;53.150;18.160;2023-12-20T05:07:17;11.20;;;5.10;;
77453;SDS011;66538;53.150;18.160;2023-12-20T05:09:43;12.30;;;5.70;;
77453;SDS011;66538;53.150;18.160;2023-12-20T05:12:10;12.10;;;5.40;;
77453;SDS011;66538;53.150;18.160;2023-12-20T05:14:36;15.20;;;7.80;;
77453;SDS011;66538;53.150;18.160;2023-12-20T05:17:03;10.20;;;5.50;;
77453;SDS011;66538;53.150;18.160;2023-12-20T05:19:30;13.20;;;6.70;;
77453;SDS011;66538;53.150;18.160;2023-12-20T05:21:56;18.90;;;9.50;;
77453;SDS011;66538;53.150;18.160;2023-12-20T05:24:23;15.60;;;8.40;;
77453;SDS011;66538;53.150;18.160;2023-12-20T05:26:50;16.70;;;7.10;;
77453;SDS011;66538;53.150;18.160;2023-12-20T05:29:16;13.30;;;7.00;;
77453;SDS011;66538;53.150;18.160;2023-12-20T05:31:43;12.60;;;6.10;;
77453;SDS011;66538;53.150;18.160;2023-12-20T05:34:09;11.10;;;6.00;;
77453;SDS011;66538;53.150;18.160;2023-12-20T05:36:36;10.50;;;5.60;;
77453;SDS011;66538;53.150;18.160;2023-12-20T05:39:03;11.10;;;5.20;;
77453;SDS011;66538;53.150;18.160;2023-12-20T05:41:30;9.30;;;4.20;;
77453;SDS011;66538;53.150;18.160;2023-12-20T05:43:57;8.90;;;3.80;;
77453;SDS011;66538;53.150;18.160;2023-12-20T05:46:24;12.30;;;5.90;;
77453;SDS011;66538;53.150;18.160;2023-12-20T05:48:51;10.10;;;4.70;;
77453;SDS011;66538;53.150;18.160;2023-12-20T05:51:18;10.00;;;5.70;;
77453;SDS011;66538;53.150;18.160;2023-12-20T05:53:45;11.50;;;6.40;;
77453;SDS011;66538;53.150;18.160;2023-12-20T05:56:11;13.50;;;6.80;;
77453;SDS011;66538;53.150;18.160;2023-12-20T05:58:38;12.20;;;6.50;;
77453;SDS011;66538;53.150;18.160;2023-12-20T06:01:06;19.00;;;9.90;;
77453;SDS011;66538;53.150;18.160;2023-12-20T06:03:34;14.10;;;7.10;;
77453;SDS011;66538;53.150;18.160;2023-12-20T06:06:07;13.20;;;6.40;;
77453;SDS011;66538;53.150;18.160;2023-12-20T06:08:34;9.90;;;5.40;;
77453;SDS011;66538;53.150;18.160;2023-12-20T06:11:00;8.60;;;3.20;;
77453;SDS011;66538;53.150;18.160;2023-12-20T06:13:27;6.70;;;3.20;;
77453;SDS011;66538;53.150;18.160;2023-12-20T06:15:54;5.70;;;2.60;;
77453;SDS011;66538;53.150;18.160;2023-12-20T06:18:21;6.10;;;2.90;;
77453;SDS011;66538;53.150;18.160;2023-12-20T06:20:48;9.60;;;3.50;;
77453;SDS011;66538;53.150;18.160;2023-12-20T06:23:14;5.60;;;3.00;;
77453;SDS011;66538;53.150;18.160;2023-12-20T06:25:41;13.70;;;8.10;;
77453;SDS011;66538;53.150;18.160;2023-12-20T06:28:07;10.80;;;5.40;;
77453;SDS011;66538;53.150;18.160;2023-12-20T06:30:36;12.70;;;7.00;;
77453;SDS011;66538;53.150;18.160;2023-12-20T06:33:03;12.60;;;6.50;;
77453;SDS011;66538;53.150;18.160;2023-12-20T06:35:29;21.00;;;10.50;;
77453;SDS011;66538;53.150;18.160;2023-12-20T06:37:56;19.40;;;10.60;;
77453;SDS011;66538;53.150;18.160;2023-12-20T06:40:23;31.00;;;14.90;;
77453;SDS011;66538;53.150;18.160;2023-12-20T06:42:49;26.30;;;13.20;;
77453;SDS011;66538;53.150;18.160;2023-12-20T06:45:16;22.60;;;10.40;;
77453;SDS011;66538;53.150;18.160;2023-12-20T06:47:42;13.90;;;7.10;;
77453;SDS011;66538;53.150;18.160;2023-12-20T06:50:09;13.00;;;7.10;;
77453;SDS011;66538;53.150;18.160;2023-12-20T06:52:35;17.50;;;10.60;;
77453;SDS011;66538;53.150;18.160;2023-12-20T06:55:02;16.30;;;8.40;;
77453;SDS011;66538;53.150;18.160;2023-12-20T06:57:29;12.80;;;6.10;;
77453;SDS011;66538;53.150;18.160;2023-12-20T06:59:56;10.90;;;5.80;;
77453;SDS011;66538;53.150;18.160;2023-12-20T07:02:23;12.40;;;5.90;;
77453;SDS011;66538;53.150;18.160;2023-12-20T07:04:49;20.20;;;8.70;;
77453;SDS011;66538;53.150;18.160;2023-12-20T07:07:16;11.10;;;5.00;;
77453;SDS011;66538;53.150;18.160;2023-12-20T07:09:42;16.70;;;6.20;;
77453;SDS011;66538;53.150;18.160;2023-12-20T07:12:09;16.40;;;6.20;;
77453;SDS011;66538;53.150;18.160;2023-12-20T07:14:36;20.00;;;8.60;;
77453;SDS011;66538;53.150;18.160;2023-12-20T07:17:03;19.80;;;8.00;;
77453;SDS011;66538;53.150;18.160;2023-12-20T07:19:29;34.20;;;12.20;;
77453;SDS011;66538;53.150;18.160;2023-12-20T07:21:56;24.30;;;8.70;;
77453;SDS011;66538;53.150;18.160;2023-12-20T07:24:22;24.90;;;10.80;;
77453;SDS011;66538;53.150;18.160;2023-12-20T07:26:49;28.20;;;12.70;;
77453;SDS011;66538;53.150;18.160;2023-12-20T07:29:15;20.40;;;8.10;;
77453;SDS011;66538;53.150;18.160;2023-12-20T07:31:42;24.60;;;10.60;;
77453;SDS011;66538;53.150;18.160;2023-12-20T07:34:09;16.00;;;8.20;;
77453;SDS011;66538;53.150;18.160;2023-12-20T07:36:35;30.00;;;13.90;;
77453;SDS011;66538;53.150;18.160;2023-12-20T07:39:02;22.40;;;12.60;;
77453;SDS011;66538;53.150;18.160;2023-12-20T07:41:29;19.10;;;10.30;;
77453;SDS011;66538;53.150;18.160;2023-12-20T07:43:56;14.60;;;7.90;;
77453;SDS011;66538;53.150;18.160;2023-12-20T07:46:23;14.50;;;6.90;;
77453;SDS011;66538;53.150;18.160;2023-12-20T07:48:49;14.50;;;6.90;;
77453;SDS011;66538;53.150;18.160;2023-12-20T07:51:16;16.90;;;6.50;;
77453;SDS011;66538;53.150;18.160;2023-12-20T07:53:43;10.70;;;5.40;;
77453;SDS011;66538;53.150;18.160;2023-12-20T07:56:13;9.90;;;4.50;;
77453;SDS011;66538;53.150;18.160;2023-12-20T07:58:41;11.90;;;5.20;;
77453;SDS011;66538;53.150;18.160;2023-12-20T08:01:09;8.80;;;4.80;;
77453;SDS011;66538;53.150;18.160;2023-12-20T08:03:37;11.30;;;5.00;;
77453;SDS011;66538;53.150;18.160;2023-12-20T08:06:04;8.80;;;4.30;;
77453;SDS011;66538;53.150;18.160;2023-12-20T08:08:31;8.50;;;4.30;;
77453;SDS011;66538;53.150;18.160;2023-12-20T08:10:57;11.00;;;4.90;;
77453;SDS011;66538;53.150;18.160;2023-12-20T08:13:26;10.20;;;5.00;;
77453;SDS011;66538;53.150;18.160;2023-12-20T08:15:53;8.30;;;3.60;;
77453;SDS011;66538;53.150;18.160;2023-12-20T08:18:20;12.30;;;4.60;;
77453;SDS011;66538;53.150;18.160;2023-12-20T08:20:47;7.90;;;2.90;;
77453;SDS011;66538;53.150;18.160;2023-12-20T08:23:14;11.40;;;4.30;;
77453;SDS011;66538;53.150;18.160;2023-12-20T08:25:42;11.90;;;4.10;;
77453;SDS011;66538;53.150;18.160;2023-12-20T08:28:08;8.50;;;3.70;;
77453;SDS011;66538;53.150;18.160;2023-12-20T08:30:35;11.20;;;3.30;;
77453;SDS011;66538;53.150;18.160;2023-12-20T08:33:02;8.10;;;3.40;;
77453;SDS011;66538;53.150;18.160;2023-12-20T08:35:28;6.90;;;3.20;;
77453;SDS011;66538;53.150;18.160;2023-12-20T08:37:55;7.20;;;2.90;;
77453;SDS011;66538;53.150;18.160;2023-12-20T08:40:22;8.00;;;3.40;;
77453;SDS011;66538;53.150;18.160;2023-12-20T08:42:49;9.50;;;3.20;;
77453;SDS011;66538;53.150;18.160;2023-12-20T08:45:16;8.80;;;3.70;;
77453;SDS011;66538;53.150;18.160;2023-12-20T08:47:42;6.90;;;3.00;;
77453;SDS011;66538;53.150;18.160;2023-12-20T08:50:11;7.60;;;3.30;;
77453;SDS011;66538;53.150;18.160;2023-12-20T08:52:38;7.70;;;3.70;;
77453;SDS011;66538;53.150;18.160;2023-12-20T08:55:05;7.90;;;3.50;;
77453;SDS011;66538;53.150;18.160;2023-12-20T08:57:32;7.80;;;3.40;;
77453;SDS011;66538;53.150;18.160;2023-12-20T09:00:00;10.10;;;3.70;;
77453;SDS011;66538;53.150;18.160;2023-12-20T09:02:26;9.50;;;3.20;;
77453;SDS011;66538;53.150;18.160;2023-12-20T09:04:53;9.30;;;3.10;;
77453;SDS011;66538;53.150;18.160;2023-12-20T09:07:20;9.40;;;3.80;;
77453;SDS011;66538;53.150;18.160;2023-12-20T09:09:49;8.80;;;3.30;;
77453;SDS011;66538;53.150;18.160;2023-12-20T09:12:19;10.30;;;4.30;;
77453;SDS011;66538;53.150;18.160;2023-12-20T09:14:47;9.70;;;4.40;;
77453;SDS011;66538;53.150;18.160;2023-12-20T09:17:15;10.80;;;4.20;;
77453;SDS011;66538;53.150;18.160;2023-12-20T09:19:43;9.80;;;4.30;;
77453;SDS011;66538;53.150;18.160;2023-12-20T09:22:10;10.50;;;4.50;;
77453;SDS011;66538;53.150;18.160;2023-12-20T09:24:37;7.30;;;3.40;;
77453;SDS011;66538;53.150;18.160;2023-12-20T09:27:05;10.20;;;4.20;;
77453;SDS011;66538;53.150;18.160;2023-12-20T09:29:32;8.50;;;3.10;;
77453;SDS011;66538;53.150;18.160;2023-12-20T09:31:58;7.60;;;3.10;;
77453;SDS011;66538;53.150;18.160;2023-12-20T09:34:25;9.00;;;3.30;;
77453;SDS011;66538;53.150;18.160;2023-12-20T09:36:53;8.00;;;3.40;;
77453;SDS011;66538;53.150;18.160;2023-12-20T09:39:20;10.30;;;3.70;;
77453;SDS011;66538;53.150;18.160;2023-12-20T09:41:49;8.40;;;3.60;;
77453;SDS011;66538;53.150;18.160;2023-12-20T09:44:25;7.10;;;3.50;;
77453;SDS011;66538;53.150;18.160;2023-12-20T09:46:52;7.10;;;3.20;;
77453;SDS011;66538;53.150;18.160;2023-12-20T09:49:21;8.70;;;4.60;;
77453;SDS011;66538;53.150;18.160;2023-12-20T09:51:50;20.50;;;7.60;;
77453;SDS011;66538;53.150;18.160;2023-12-20T09:54:18;12.80;;;4.20;;
77453;SDS011;66538;53.150;18.160;2023-12-20T09:56:44;7.70;;;3.70;;
77453;SDS011;66538;53.150;18.160;2023-12-20T09:59:11;8.50;;;3.50;;
77453;SDS011;66538;53.150;18.160;2023-12-20T10:01:39;8.40;;;3.60;;
77453;SDS011;66538;53.150;18.160;2023-12-20T10:04:07;8.20;;;3.00;;
77453;SDS011;66538;53.150;18.160;2023-12-20T10:06:41;6.50;;;2.80;;
77453;SDS011;66538;53.150;18.160;2023-12-20T10:09:09;7.00;;;3.20;;
77453;SDS011;66538;53.150;18.160;2023-12-20T10:11:37;7.40;;;3.10;;
77453;SDS011;66538;53.150;18.160;2023-12-20T10:14:05;7.20;;;2.80;;
77453;SDS011;66538;53.150;18.160;2023-12-20T10:16:33;6.40;;;2.30;;
77453;SDS011;66538;53.150;18.160;2023-12-20T10:19:00;8.00;;;2.90;;
77453;SDS011;66538;53.150;18.160;2023-12-20T10:21:27;5.30;;;2.20;;
77453;SDS011;66538;53.150;18.160;2023-12-20T10:23:55;7.50;;;2.70;;
77453;SDS011;66538;53.150;18.160;2023-12-20T10:26:22;4.30;;;1.90;;
77453;SDS011;66538;53.150;18.160;2023-12-20T10:28:51;4.80;;;2.30;;
77453;SDS011;66538;53.150;18.160;2023-12-20T10:31:32;7.60;;;2.90;;
77453;SDS011;66538;53.150;18.160;2023-12-20T10:34:00;5.90;;;2.20;;
77453;SDS011;66538;53.150;18.160;2023-12-20T10:36:29;4.70;;;2.30;;
77453;SDS011;66538;53.150;18.160;2023-12-20T10:38:58;9.50;;;4.00;;
77453;SDS011;66538;53.150;18.160;2023-12-20T10:41:26;8.10;;;4.10;;
77453;SDS011;66538;53.150;18.160;2023-12-20T10:43:59;15.10;;;5.20;;
77453;SDS011;66538;53.150;18.160;2023-12-20T10:46:27;10.90;;;4.50;;
77453;SDS011;66538;53.150;18.160;2023-12-20T10:48:58;10.20;;;3.50;;
77453;SDS011;66538;53.150;18.160;2023-12-20T10:51:25;7.70;;;3.50;;
77453;SDS011;66538;53.150;18.160;2023-12-20T10:53:58;10.00;;;3.80;;
77453;SDS011;66538;53.150;18.160;2023-12-20T10:56:25;10.00;;;4.30;;
77453;SDS011;66538;53.150;18.160;2023-12-20T10:58:59;10.70;;;4.00;;
77453;SDS011;66538;53.150;18.160;2023-12-20T11:01:29;14.70;;;5.90;;
77453;SDS011;66538;53.150;18.160;2023-12-20T11:03:56;11.10;;;4.60;;
77453;SDS011;66538;53.150;18.160;2023-12-20T11:09:26;7.60;;;3.70;;
77453;SDS011;66538;53.150;18.160;2023-12-20T11:12:14;10.20;;;4.10;;
77453;SDS011;66538;53.150;18.160;2023-12-20T11:14:50;10.40;;;4.60;;
77453;SDS011;66538;53.150;18.160;2023-12-20T11:17:19;10.00;;;3.60;;
77453;SDS011;66538;53.150;18.160;2023-12-20T11:22:24;5.00;;;2.40;;
77453;SDS011;66538;53.150;18.160;2023-12-20T11:24:52;6.70;;;3.30;;
77453;SDS011;66538;53.150;18.160;2023-12-20T11:27:20;5.90;;;2.40;;
77453;SDS011;66538;53.150;18.160;2023-12-20T11:29:53;6.60;;;2.30;;
77453;SDS011;66538;53.150;18.160;2023-12-20T11:34:53;6.00;;;2.30;;
77453;SDS011;66538;53.150;18.160;2023-12-20T11:37:43;6.90;;;3.00;;
77453;SDS011;66538;53.150;18.160;2023-12-20T11:40:14;7.90;;;2.80;;
77453;SDS011;66538;53.150;18.160;2023-12-20T11:42:42;6.60;;;2.40;;
77453;SDS011;66538;53.150;18.160;2023-12-20T11:45:15;7.50;;;2.50;;
77453;SDS011;66538;53.150;18.160;2023-12-20T11:47:46;5.90;;;2.30;;
77453;SDS011;66538;53.150;18.160;2023-12-20T11:50:13;6.40;;;2.40;;
77453;SDS011;66538;53.150;18.160;2023-12-20T11:52:40;9.90;;;2.80;;
77453;SDS011;66538;53.150;18.160;2023-12-20T11:55:07;9.20;;;3.10;;
77453;SDS011;66538;53.150;18.160;2023-12-20T11:57:34;14.50;;;5.00;;
77453;SDS011;66538;53.150;18.160;2023-12-20T12:00:05;6.40;;;2.60;;
77453;SDS011;66538;53.150;18.160;2023-12-20T12:02:38;9.90;;;3.30;;
77453;SDS011;66538;53.150;18.160;2023-12-20T12:05:05;12.00;;;3.70;;
77453;SDS011;66538;53.150;18.160;2023-12-20T12:07:33;10.00;;;3.90;;
77453;SDS011;66538;53.150;18.160;2023-12-20T12:10:00;12.10;;;4.10;;
77453;SDS011;66538;53.150;18.160;2023-12-20T12:12:27;19.30;;;6.20;;
77453;SDS011;66538;53.150;18.160;2023-12-20T12:14:54;9.90;;;3.80;;
77453;SDS011;66538;53.150;18.160;2023-12-20T12:17:23;13.40;;;4.40;;
77453;SDS011;66538;53.150;18.160;2023-12-20T12:19:49;11.70;;;4.10;;
77453;SDS011;66538;53.150;18.160;2023-12-20T12:22:16;10.10;;;3.20;;
77453;SDS011;66538;53.150;18.160;2023-12-20T12:24:43;8.30;;;2.70;;
77453;SDS011;66538;53.150;18.160;2023-12-20T12:27:11;9.90;;;2.90;;
77453;SDS011;66538;53.150;18.160;2023-12-20T12:29:39;10.20;;;3.90;;
77453;SDS011;66538;53.150;18.160;2023-12-20T12:32:06;8.70;;;3.90;;
77453;SDS011;66538;53.150;18.160;2023-12-20T12:34:35;8.40;;;3.00;;
77453;SDS011;66538;53.150;18.160;2023-12-20T12:37:06;7.70;;;3.40;;
77453;SDS011;66538;53.150;18.160;2023-12-20T12:39:33;15.60;;;4.30;;
77453;SDS011;66538;53.150;18.160;2023-12-20T12:42:00;10.80;;;4.40;;
77453;SDS011;66538;53.150;18.160;2023-12-20T12:44:27;9.30;;;4.00;;
77453;SDS011;66538;53.150;18.160;2023-12-20T12:46:53;8.80;;;3.60;;
77453;SDS011;66538;53.150;18.160;2023-12-20T12:49:20;9.50;;;3.20;;
77453;SDS011;66538;53.150;18.160;2023-12-20T12:51:50;7.80;;;3.10;;
77453;SDS011;66538;53.150;18.160;2023-12-20T12:54:17;7.80;;;2.10;;
77453;SDS011;66538;53.150;18.160;2023-12-20T12:56:44;4.80;;;2.40;;
77453;SDS011;66538;53.150;18.160;2023-12-20T12:59:13;8.30;;;3.50;;
77453;SDS011;66538;53.150;18.160;2023-12-20T13:01:39;7.10;;;3.50;;
77453;SDS011;66538;53.150;18.160;2023-12-20T13:04:06;8.00;;;2.80;;
77453;SDS011;66538;53.150;18.160;2023-12-20T13:06:37;4.80;;;2.20;;
77453;SDS011;66538;53.150;18.160;2023-12-20T13:09:04;7.10;;;2.90;;
77453;SDS011;66538;53.150;18.160;2023-12-20T13:11:31;7.00;;;2.00;;
77453;SDS011;66538;53.150;18.160;2023-12-20T13:13:58;5.20;;;2.10;;
77453;SDS011;66538;53.150;18.160;2023-12-20T13:16:26;8.60;;;3.10;;
77453;SDS011;66538;53.150;18.160;2023-12-20T13:18:53;4.30;;;1.90;;
77453;SDS011;66538;53.150;18.160;2023-12-20T13:21:19;7.00;;;3.10;;
77453;SDS011;66538;53.150;18.160;2023-12-20T13:23:46;6.10;;;2.40;;
77453;SDS011;66538;53.150;18.160;2023-12-20T13:26:13;7.00;;;2.60;;
77453;SDS011;66538;53.150;18.160;2023-12-20T13:28:40;5.40;;;2.40;;
77453;SDS011;66538;53.150;18.160;2023-12-20T13:31:07;6.50;;;2.50;;
77453;SDS011;66538;53.150;18.160;2023-12-20T13:33:33;9.80;;;2.60;;
77453;SDS011;66538;53.150;18.160;2023-12-20T13:36:00;5.90;;;2.50;;
77453;SDS011;66538;53.150;18.160;2023-12-20T13:38:26;6.30;;;2.10;;
77453;SDS011;66538;53.150;18.160;2023-12-20T13:40:53;7.80;;;2.50;;
77453;SDS011;66538;53.150;18.160;2023-12-20T13:43:20;4.90;;;2.20;;
77453;SDS011;66538;53.150;18.160;2023-12-20T13:45:48;7.10;;;2.90;;
77453;SDS011;66538;53.150;18.160;2023-12-20T13:48:14;4.00;;;2.10;;
77453;SDS011;66538;53.150;18.160;2023-12-20T13:50:41;8.40;;;3.10;;
77453;SDS011;66538;53.150;18.160;2023-12-20T13:53:08;7.30;;;2.40;;
77453;SDS011;66538;53.150;18.160;2023-12-20T13:55:34;7.90;;;2.80;;
77453;SDS011;66538;53.150;18.160;2023-12-20T13:58:01;7.30;;;2.90;;
77453;SDS011;66538;53.150;18.160;2023-12-20T14:00:28;9.60;;;3.60;;
77453;SDS011;66538;53.150;18.160;2023-12-20T14:02:54;7.10;;;3.10;;
77453;SDS011;66538;53.150;18.160;2023-12-20T14:05:21;8.70;;;4.00;;
77453;SDS011;66538;53.150;18.160;2023-12-20T14:07:49;9.50;;;4.10;;
77453;SDS011;66538;53.150;18.160;2023-12-20T14:10:16;7.10;;;3.80;;
77453;SDS011;66538;53.150;18.160;2023-12-20T14:12:42;8.80;;;3.60;;
77453;SDS011;66538;53.150;18.160;2023-12-20T14:15:11;12.10;;;5.60;;
77453;SDS011;66538;53.150;18.160;2023-12-20T14:17:39;6.50;;;3.90;;
77453;SDS011;66538;53.150;18.160;2023-12-20T14:20:08;9.10;;;2.90;;
77453;SDS011;66538;53.150;18.160;2023-12-20T14:22:35;9.30;;;3.40;;
77453;SDS011;66538;53.150;18.160;2023-12-20T14:25:02;7.80;;;3.20;;
77453;SDS011;66538;53.150;18.160;2023-12-20T14:27:29;9.30;;;3.70;;
77453;SDS011;66538;53.150;18.160;2023-12-20T14:29:56;7.40;;;3.80;;
77453;SDS011;66538;53.150;18.160;2023-12-20T14:32:23;9.80;;;3.40;;
77453;SDS011;66538;53.150;18.160;2023-12-20T14:34:51;7.90;;;2.90;;
77453;SDS011;66538;53.150;18.160;2023-12-20T14:37:17;8.50;;;3.90;;
77453;SDS011;66538;53.150;18.160;2023-12-20T14:39:44;8.80;;;3.70;;